Time;durP1;ratioP1;P1;durP2;ratioP2;P2;SDS_P1;SDS_P2;PMS_P1;PMS_P2;Temp;Humidity;BMP_temperature;BMP_pressure;BME280_temperature;BME280_humidity;BME280_pressure;Samples;Min_cycle;Max_cycle;Signal;HPM_P1;HPM_P2
2021/03/31 00:00:29;;;;;;;6.00;4.20;;;10.80;85.80;;;;;;5085186;28;20624;-75
2021/03/31 00:02:58;;;;;;;4.97;4.32;;;10.80;85.50;;;;;;5075162;28;20243;-75
2021/03/31 00:05:25;;;;;;;6.50;4.25;;;10.80;85.70;;;;;;5072754;28;20221;-75
2021/03/31 00:07:53;;;;;;;5.95;4.50;;;10.80;85.90;;;;;;5088770;28;20813;-75
2021/03/31 00:10:33;;;;;;;5.03;4.50;;;10.70;86.30;;;;;;5071209;28;20307;-75
2021/03/31 00:13:00;;;;;;;5.85;4.65;;;10.60;87.30;;;;;;5081597;28;20191;-75
2021/03/31 00:15:26;;;;;;;8.15;4.60;;;10.50;87.90;;;;;;5072146;28;20253;-75
2021/03/31 00:18:06;;;;;;;5.30;3.97;;;10.50;88.40;;;;;;5068519;28;20179;-75
2021/03/31 00:20:33;;;;;;;4.28;3.88;;;10.40;90.00;;;;;;5090674;28;20233;-74
2021/03/31 00:23:02;;;;;;;6.13;3.78;;;10.40;90.30;;;;;;5091405;28;20188;-74
2021/03/31 00:25:32;;;;;;;6.60;4.00;;;10.40;90.80;;;;;;5088810;28;20636;-74
2021/03/31 00:27:59;;;;;;;4.35;3.92;;;10.40;90.60;;;;;;5070329;28;20186;-74
2021/03/31 00:30:27;;;;;;;6.15;4.35;;;10.20;91.10;;;;;;5073660;28;20226;-74
2021/03/31 00:32:54;;;;;;;4.47;4.00;;;10.10;91.40;;;;;;5091575;28;20186;-75
2021/03/31 00:35:20;;;;;;;4.72;3.67;;;10.00;91.50;;;;;;5091844;28;20234;-75
2021/03/31 00:37:47;;;;;;;5.65;4.43;;;10.10;91.10;;;;;;5084620;28;20186;-75
2021/03/31 00:40:17;;;;;;;5.15;3.90;;;10.00;91.20;;;;;;5095429;28;20263;-75
2021/03/31 00:42:45;;;;;;;4.95;4.45;;;9.80;91.60;;;;;;5095338;28;20685;-75
2021/03/31 00:45:14;;;;;;;4.97;4.47;;;9.90;91.40;;;;;;5087727;28;20243;-75
2021/03/31 00:47:40;;;;;;;7.78;4.90;;;10.00;90.30;;;;;;5095722;28;20187;-75
2021/03/31 00:50:12;;;;;;;9.13;4.65;;;10.00;90.40;;;;;;5095681;28;20214;-75
2021/03/31 00:52:40;;;;;;;7.13;5.30;;;10.00;90.40;;;;;;5086523;28;20594;-75
2021/03/31 00:55:09;;;;;;;9.77;6.90;;;10.00;90.70;;;;;;5083345;28;20267;-75
2021/03/31 00:57:37;;;;;;;9.30;5.70;;;9.90;91.00;;;;;;5095071;28;20457;-75
2021/03/31 01:00:06;;;;;;;7.90;6.82;;;9.90;91.00;;;;;;5089130;28;20689;-75
2021/03/31 01:02:32;;;;;;;14.35;6.70;;;9.90;91.20;;;;;;5095189;28;20248;-75
2021/03/31 01:04:59;;;;;;;12.38;7.97;;;10.00;91.00;;;;;;5056747;28;20223;-75
2021/03/31 01:07:25;;;;;;;8.73;6.25;;;10.00;90.90;;;;;;5092484;28;20187;-75
2021/03/31 01:09:54;;;;;;;13.48;7.53;;;10.00;90.90;;;;;;5077149;28;20212;-75
2021/03/31 01:12:58;;;;;;;12.55;6.30;;;9.90;91.10;;;;;;5091751;28;20705;-75
2021/03/31 01:15:28;;;;;;;6.75;5.70;;;9.90;91.00;;;;;;5058363;28;20223;-75
2021/03/31 01:18:01;;;;;;;8.30;5.68;;;9.90;91.00;;;;;;5049878;28;20252;-74
2021/03/31 01:20:44;;;;;;;14.32;6.20;;;9.90;91.30;;;;;;5094476;28;20215;-74
2021/03/31 01:23:31;;;;;;;6.57;5.85;;;9.80;91.20;;;;;;5089139;28;20275;-74
2021/03/31 01:26:32;;;;;;;6.80;5.80;;;9.70;91.40;;;;;;5069083;28;20237;-74
2021/03/31 01:29:20;;;;;;;10.50;5.18;;;9.70;91.20;;;;;;5087463;28;20215;-74
2021/03/31 01:32:04;;;;;;;6.63;5.15;;;9.80;91.00;;;;;;5091486;28;20179;-75
2021/03/31 01:34:37;;;;;;;9.48;4.80;;;9.80;90.80;;;;;;5093995;28;20726;-75
2021/03/31 01:37:13;;;;;;;6.18;4.13;;;9.80;90.90;;;;;;5094423;28;20179;-75
2021/03/31 01:39:41;;;;;;;7.75;4.93;;;9.70;91.40;;;;;;5091463;28;20237;-74
2021/03/31 01:42:10;;;;;;;6.72;4.40;;;9.70;91.20;;;;;;5094445;28;20248;-74
2021/03/31 01:44:39;;;;;;;5.90;4.15;;;9.70;91.60;;;;;;5066541;28;20261;-74
2021/03/31 01:47:08;;;;;;;8.57;5.15;;;9.60;92.60;;;;;;5094434;28;20197;-74
2021/03/31 01:49:34;;;;;;;6.72;4.72;;;9.50;93.20;;;;;;5093789;28;20339;-74
2021/03/31 01:52:04;;;;;;;5.13;4.60;;;9.40;93.50;;;;;;5094358;28;20637;-74
2021/03/31 01:54:31;;;;;;;6.25;4.50;;;9.30;94.80;;;;;;5086820;28;20583;-74
2021/03/31 01:56:59;;;;;;;6.50;3.63;;;9.40;94.40;;;;;;5094011;28;20191;-75
2021/03/31 01:59:26;;;;;;;4.93;4.43;;;9.30;95.00;;;;;;5088957;28;20310;-75
2021/03/31 02:01:54;;;;;;;6.50;5.05;;;9.20;95.80;;;;;;5093879;28;20256;-75
2021/03/31 02:04:22;;;;;;;12.13;4.57;;;9.30;95.40;;;;;;5093483;28;20223;-75
2021/03/31 02:06:51;;;;;;;6.65;4.47;;;9.20;95.10;;;;;;5093802;28;20734;-75
2021/03/31 02:09:19;;;;;;;12.05;4.45;;;9.10;95.60;;;;;;5081893;28;20239;-75
2021/03/31 02:11:46;;;;;;;5.43;4.75;;;9.00;96.00;;;;;;5084048;28;20226;-75
2021/03/31 02:14:17;;;;;;;7.47;4.35;;;9.00;96.40;;;;;;5091420;28;20215;-75
2021/03/31 02:16:44;;;;;;;5.47;4.47;;;8.90;97.00;;;;;;5093669;28;20215;-75
2021/03/31 02:19:16;;;;;;;6.13;4.85;;;8.90;96.90;;;;;;5093330;28;20226;-74
2021/03/31 02:21:43;;;;;;;9.07;4.15;;;8.80;97.00;;;;;;5093301;28;20619;-75
2021/03/31 02:24:16;;;;;;;5.85;4.20;;;8.80;97.10;;;;;;5091264;28;20218;-74
2021/03/31 02:26:43;;;;;;;5.38;4.15;;;8.80;96.40;;;;;;5074494;28;20256;-74
2021/03/31 02:29:10;;;;;;;5.38;4.80;;;8.80;96.20;;;;;;5085205;28;20798;-74
2021/03/31 02:31:38;;;;;;;6.05;4.45;;;8.80;96.50;;;;;;5075943;28;20237;-74
2021/03/31 02:34:06;;;;;;;5.45;4.80;;;8.70;96.50;;;;;;5093209;28;20215;-74
2021/03/31 02:36:39;;;;;;;6.03;4.57;;;8.70;96.30;;;;;;5092372;28;20210;-74
2021/03/31 02:39:09;;;;;;;5.55;4.70;;;8.50;96.90;;;;;;5074958;28;20727;-74
2021/03/31 02:41:40;;;;;;;5.32;4.50;;;8.50;97.40;;;;;;5075737;28;20203;-74
2021/03/31 02:44:10;;;;;;;6.32;4.88;;;8.50;97.80;;;;;;5084652;28;20761;-74
2021/03/31 02:46:39;;;;;;;6.35;5.00;;;8.40;97.70;;;;;;5055114;28;20196;-74
2021/03/31 02:49:07;;;;;;;4.45;4.00;;;8.40;97.70;;;;;;5091761;28;20215;-74
2021/03/31 02:51:36;;;;;;;5.03;4.22;;;8.40;97.50;;;;;;5075083;28;20210;-74
2021/03/31 02:54:08;;;;;;;4.25;3.85;;;8.40;97.50;;;;;;5091237;28;20247;-74
2021/03/31 02:56:38;;;;;;;4.78;4.22;;;8.30;98.30;;;;;;5092683;28;20261;-74
2021/03/31 02:59:05;;;;;;;6.38;4.30;;;8.20;99.10;;;;;;5084807;28;20219;-74
2021/03/31 03:01:32;;;;;;;5.00;4.20;;;8.10;99.20;;;;;;5084011;28;20288;-74
2021/03/31 03:03:59;;;;;;;8.20;4.10;;;8.20;99.30;;;;;;5073347;28;20468;-74
2021/03/31 03:06:30;;;;;;;6.90;4.57;;;8.10;99.10;;;;;;5092202;28;20711;-74
2021/03/31 03:09:01;;;;;;;6.50;4.30;;;8.20;99.10;;;;;;5062535;28;20257;-74
2021/03/31 03:11:29;;;;;;;6.72;4.47;;;8.10;99.40;;;;;;5092122;28;20240;-74
2021/03/31 03:13:56;;;;;;;5.47;4.55;;;8.10;99.40;;;;;;5085728;28;20250;-74
2021/03/31 03:16:22;;;;;;;4.93;4.47;;;8.10;99.90;;;;;;5073248;28;20212;-75
2021/03/31 03:18:49;;;;;;;5.00;4.50;;;7.90;99.90;;;;;;5092409;28;20219;-75
2021/03/31 03:21:16;;;;;;;5.10;4.55;;;8.00;99.90;;;;;;5074364;28;20211;-75
2021/03/31 03:23:43;;;;;;;5.18;4.65;;;8.00;99.90;;;;;;5077561;28;20294;-75
2021/03/31 03:26:15;;;;;;;5.93;4.15;;;7.90;99.90;;;;;;5092216;28;20199;-75
2021/03/31 03:28:44;;;;;;;6.22;4.43;;;8.00;99.90;;;;;;5089613;28;20207;-75
2021/03/31 03:31:12;;;;;;;4.97;4.47;;;8.00;99.90;;;;;;5092793;28;20266;-74
2021/03/31 03:33:39;;;;;;;9.52;4.97;;;8.00;99.90;;;;;;5091958;28;20218;-75
2021/03/31 03:36:09;;;;;;;11.40;4.75;;;8.00;99.90;;;;;;5092296;28;20294;-75
2021/03/31 03:38:36;;;;;;;7.60;5.05;;;8.00;99.80;;;;;;5076796;28;20223;-75
2021/03/31 03:41:08;;;;;;;5.20;4.40;;;8.10;99.20;;;;;;5092227;28;20267;-74
2021/03/31 03:43:38;;;;;;;4.53;4.10;;;8.20;98.40;;;;;;5070514;28;20273;-74
2021/03/31 03:46:13;;;;;;;6.68;4.63;;;8.20;98.10;;;;;;5072395;28;20275;-74
2021/03/31 03:48:39;;;;;;;6.68;4.90;;;8.20;98.10;;;;;;5091145;28;20218;-74
2021/03/31 03:51:10;;;;;;;8.80;5.20;;;8.10;98.00;;;;;;5070480;28;20306;-75
2021/03/31 03:53:37;;;;;;;5.05;4.55;;;8.10;98.20;;;;;;5086286;28;20219;-74
2021/03/31 03:56:10;;;;;;;9.32;4.25;;;8.10;98.60;;;;;;5072843;28;20569;-74
2021/03/31 03:58:37;;;;;;;5.18;4.68;;;8.10;98.00;;;;;;5057083;28;20203;-75
2021/03/31 04:01:04;;;;;;;6.43;4.30;;;8.20;98.00;;;;;;5091947;28;20214;-75
2021/03/31 04:03:31;;;;;;;5.75;4.40;;;8.20;97.50;;;;;;5091366;28;20248;-74
2021/03/31 04:05:58;;;;;;;5.57;4.68;;;8.20;97.30;;;;;;5091356;28;20199;-74
2021/03/31 04:08:25;;;;;;;5.38;4.28;;;8.20;97.50;;;;;;5089256;28;20187;-74
2021/03/31 04:10:57;;;;;;;6.05;3.90;;;8.20;97.30;;;;;;5090988;28;20577;-74
2021/03/31 04:13:24;;;;;;;5.25;4.75;;;8.10;97.40;;;;;;5090781;28;20187;-75
2021/03/31 04:15:58;;;;;;;7.30;5.10;;;8.10;97.20;;;;;;5079327;28;20199;-74
2021/03/31 04:18:26;;;;;;;7.25;3.85;;;8.10;96.70;;;;;;5090661;28;20198;-74
2021/03/31 04:20:54;;;;;;;6.30;3.63;;;8.20;96.10;;;;;;5091442;28;20183;-74
2021/03/31 04:23:20;;;;;;;4.35;3.75;;;8.20;95.30;;;;;;5086685;28;20511;-74
2021/03/31 04:25:47;;;;;;;5.75;4.10;;;8.30;95.00;;;;;;5086577;28;20230;-74
2021/03/31 04:28:15;;;;;;;8.35;4.38;;;8.30;95.00;;;;;;5090673;28;20228;-74
2021/03/31 04:30:41;;;;;;;9.05;4.70;;;8.30;94.60;;;;;;5080163;28;20549;-74
2021/03/31 04:33:10;;;;;;;4.90;4.22;;;8.40;94.30;;;;;;5091154;28;20680;-74
2021/03/31 04:35:38;;;;;;;4.30;3.40;;;8.30;94.50;;;;;;5073169;28;20229;-74
2021/03/31 04:38:08;;;;;;;7.97;4.53;;;8.30;94.30;;;;;;5062358;28;20253;-74
2021/03/31 04:40:45;;;;;;;5.38;3.72;;;8.30;94.00;;;;;;5071159;28;20272;-75
2021/03/31 04:43:11;;;;;;;5.22;3.90;;;8.30;94.90;;;;;;5068107;28;20206;-74
2021/03/31 04:45:37;;;;;;;4.85;4.35;;;8.30;94.30;;;;;;5053432;28;20302;-74
2021/03/31 04:48:04;;;;;;;7.13;4.20;;;8.30;93.90;;;;;;5090081;28;20179;-75
2021/03/31 04:50:31;;;;;;;3.85;3.55;;;8.30;94.00;;;;;;5091098;28;20226;-75
2021/03/31 04:52:57;;;;;;;5.10;3.35;;;8.40;93.90;;;;;;5084323;28;20176;-74
2021/03/31 04:55:24;;;;;;;7.05;3.67;;;8.40;93.70;;;;;;5090610;28;20686;-75
2021/03/31 04:57:50;;;;;;;4.65;2.90;;;8.30;93.90;;;;;;5091305;28;20245;-75
2021/03/31 05:00:17;;;;;;;5.25;3.58;;;8.20;94.20;;;;;;5088006;28;20242;-75
2021/03/31 05:02:43;;;;;;;3.92;3.55;;;8.20;94.30;;;;;;5073461;28;20252;-75
2021/03/31 05:05:10;;;;;;;7.28;4.28;;;8.10;93.90;;;;;;5090757;28;20249;-75
2021/03/31 05:07:37;;;;;;;4.32;3.92;;;8.10;94.80;;;;;;5053377;28;20290;-74
2021/03/31 05:10:04;;;;;;;4.22;3.83;;;8.10;95.00;;;;;;5052715;28;20223;-74
2021/03/31 05:12:31;;;;;;;4.28;3.00;;;8.10;94.50;;;;;;5086248;28;20190;-75
2021/03/31 05:14:57;;;;;;;4.75;4.13;;;8.10;94.80;;;;;;5071668;28;20678;-75
2021/03/31 05:17:23;;;;;;;9.23;4.00;;;8.10;95.10;;;;;;5091009;28;20240;-75
2021/03/31 05:19:50;;;;;;;12.75;4.38;;;8.00;94.60;;;;;;5058266;28;20285;-75
2021/03/31 05:22:17;;;;;;;5.38;4.40;;;8.00;94.80;;;;;;5076865;28;20222;-75
2021/03/31 05:24:43;;;;;;;12.25;4.65;;;7.90;95.20;;;;;;5094291;28;20305;-75
2021/03/31 05:27:10;;;;;;;5.43;3.50;;;7.90;95.10;;;;;;5076739;28;20552;-75
2021/03/31 05:29:36;;;;;;;5.05;4.13;;;8.00;94.80;;;;;;5065298;28;20239;-74
2021/03/31 05:32:04;;;;;;;6.78;3.65;;;8.00;94.60;;;;;;5093899;28;20606;-75
2021/03/31 05:34:30;;;;;;;6.50;3.83;;;8.00;95.00;;;;;;5094301;28;20219;-75
2021/03/31 05:36:57;;;;;;;5.50;3.22;;;8.10;95.20;;;;;;5088088;28;20263;-75
2021/03/31 05:39:23;;;;;;;4.47;4.07;;;8.00;95.10;;;;;;5094257;28;20279;-74
2021/03/31 05:41:50;;;;;;;5.00;3.90;;;8.10;95.20;;;;;;5076320;28;20941;-75
2021/03/31 05:44:16;;;;;;;9.38;4.00;;;8.10;95.30;;;;;;5084240;28;20746;-75
2021/03/31 05:46:43;;;;;;;6.50;4.35;;;8.10;95.70;;;;;;5089894;28;20204;-75
2021/03/31 05:49:11;;;;;;;5.78;3.85;;;8.30;95.20;;;;;;5075925;28;20562;-75
2021/03/31 05:51:38;;;;;;;7.47;4.00;;;8.30;95.20;;;;;;5087007;28;20589;-74
2021/03/31 05:54:04;;;;;;;5.28;4.00;;;8.40;95.50;;;;;;5092591;28;20219;-74
2021/03/31 05:56:32;;;;;;;6.22;3.63;;;8.40;95.30;;;;;;5093817;28;20272;-75
2021/03/31 05:59:05;;;;;;;6.78;3.63;;;8.50;95.40;;;;;;5071625;28;20739;-74
2021/03/31 06:01:33;;;;;;;8.15;4.20;;;8.60;95.20;;;;;;5074166;28;20294;-74
2021/03/31 06:03:59;;;;;;;8.65;4.32;;;8.70;95.30;;;;;;5075404;28;20317;-75
2021/03/31 06:06:26;;;;;;;10.32;3.97;;;8.70;96.00;;;;;;5093718;28;20637;-75
2021/03/31 06:08:56;;;;;;;5.85;4.05;;;8.90;95.40;;;;;;5078437;28;20215;-75
2021/03/31 06:11:23;;;;;;;6.00;4.18;;;9.00;95.90;;;;;;5087028;28;20217;-75
2021/03/31 06:13:57;;;;;;;10.65;4.40;;;9.10;96.50;;;;;;5071301;28;20710;-75
2021/03/31 06:16:36;;;;;;;5.93;4.20;;;9.20;95.90;;;;;;5069388;28;20223;-75
2021/03/31 06:19:20;;;;;;;12.68;4.70;;;9.30;95.00;;;;;;5093445;28;20214;-75
2021/03/31 06:22:06;;;;;;;6.25;4.13;;;9.50;94.50;;;;;;5075742;28;20234;-75
2021/03/31 06:24:34;;;;;;;4.45;4.05;;;9.70;94.20;;;;;;5062264;28;20211;-75
2021/03/31 06:27:02;;;;;;;7.00;4.03;;;9.90;93.20;;;;;;5093206;28;20215;-75
2021/03/31 06:29:43;;;;;;;8.15;4.40;;;10.10;91.40;;;;;;5055837;28;20291;-75
2021/03/31 06:32:19;;;;;;;4.90;4.20;;;10.40;88.90;;;;;;5056448;28;20490;-75
2021/03/31 06:34:54;;;;;;;6.38;4.50;;;10.50;90.00;;;;;;5073336;28;20688;-74
2021/03/31 06:37:35;;;;;;;7.93;3.35;;;10.70;90.30;;;;;;5084964;28;20270;-74
2021/03/31 06:40:07;;;;;;;4.50;3.70;;;10.90;89.60;;;;;;5086499;28;20251;-75
2021/03/31 06:42:36;;;;;;;5.00;4.13;;;11.10;84.40;;;;;;5092063;28;20203;-75
2021/03/31 06:45:19;;;;;;;7.28;4.15;;;11.40;81.10;;;;;;5073200;28;20229;-75
2021/03/31 06:47:51;;;;;;;4.93;4.17;;;11.60;80.10;;;;;;5082723;28;20190;-75
2021/03/31 06:50:18;;;;;;;4.77;3.53;;;11.90;78.70;;;;;;5086976;28;20461;-75
2021/03/31 06:52:54;;;;;;;5.90;3.57;;;12.10;78.50;;;;;;5061463;28;20440;-74
2021/03/31 06:55:21;;;;;;;9.50;4.37;;;12.30;76.10;;;;;;5089220;28;20989;-75
2021/03/31 06:57:52;;;;;;;7.03;4.60;;;12.40;78.10;;;;;;5092203;28;20861;-75
2021/03/31 07:00:33;;;;;;;9.40;4.50;;;12.50;78.40;;;;;;5085704;28;20518;-75
2021/03/31 07:03:04;;;;;;;7.20;4.63;;;12.70;78.40;;;;;;5060594;28;20461;-75
2021/03/31 07:05:37;;;;;;;5.87;4.60;;;13.00;77.60;;;;;;5074606;28;20527;-75
2021/03/31 07:08:06;;;;;;;8.07;4.60;;;13.20;76.30;;;;;;5065056;28;20473;-75
2021/03/31 07:10:46;;;;;;;6.17;4.47;;;13.70;75.00;;;;;;5066024;28;20497;-75
2021/03/31 07:13:27;;;;;;;7.23;4.70;;;13.80;73.70;;;;;;5092757;28;20433;-74
2021/03/31 07:15:55;;;;;;;6.50;4.87;;;14.10;74.60;;;;;;5080587;28;20447;-75
2021/03/31 07:18:26;;;;;;;6.10;4.63;;;14.20;74.60;;;;;;5073943;28;20431;-75
2021/03/31 07:20:52;;;;;;;5.67;4.27;;;14.50;71.80;;;;;;5072600;28;20421;-75
2021/03/31 07:23:24;;;;;;;7.63;5.00;;;14.80;69.40;;;;;;5073639;28;20892;-75
2021/03/31 07:25:52;;;;;;;5.30;4.80;;;15.30;71.00;;;;;;5054278;28;20541;-75
2021/03/31 07:28:42;;;;;;;9.60;5.00;;;15.60;66.40;;;;;;5072224;28;20422;-75
2021/03/31 07:31:11;;;;;;;6.80;4.90;;;15.70;66.00;;;;;;5073967;28;20449;-75
2021/03/31 07:33:42;;;;;;;7.70;5.30;;;16.00;67.80;;;;;;5074004;28;20445;-75
2021/03/31 07:36:13;;;;;;;8.97;5.40;;;16.50;63.60;;;;;;5074087;28;20441;-75
2021/03/31 07:38:43;;;;;;;13.63;5.70;;;16.50;61.60;;;;;;5075057;28;20529;-75
2021/03/31 07:41:10;;;;;;;7.97;5.40;;;16.50;64.70;;;;;;5083353;28;20428;-75
2021/03/31 07:43:41;;;;;;;11.33;7.07;;;16.60;63.50;;;;;;5070599;28;20477;-75
2021/03/31 07:46:11;;;;;;;11.10;5.93;;;17.00;63.60;;;;;;5069741;28;20503;-75
2021/03/31 07:48:40;;;;;;;9.73;5.77;;;17.10;61.90;;;;;;5073043;28;20480;-74
2021/03/31 07:51:29;;;;;;;8.07;5.73;;;17.30;66.20;;;;;;5092272;28;20426;-74
2021/03/31 07:53:57;;;;;;;8.30;5.93;;;17.60;62.00;;;;;;5072605;28;20461;-74
2021/03/31 07:56:31;;;;;;;6.77;6.00;;;17.60;61.60;;;;;;5091766;28;20553;-75
2021/03/31 07:59:05;;;;;;;10.27;6.57;;;17.80;60.00;;;;;;5070976;28;20469;-75
2021/03/31 08:01:37;;;;;;;9.07;6.80;;;17.80;61.70;;;;;;5073865;28;20946;-75
2021/03/31 08:04:06;;;;;;;12.70;7.10;;;18.00;59.50;;;;;;5089446;28;20455;-74
2021/03/31 08:06:35;;;;;;;7.93;6.00;;;18.10;62.00;;;;;;5071753;28;20451;-75
2021/03/31 08:09:08;;;;;;;7.30;6.20;;;18.10;61.00;;;;;;5075155;28;20588;-75
2021/03/31 08:11:43;;;;;;;13.40;7.33;;;18.20;59.70;;;;;;5091994;28;20925;-75
2021/03/31 08:14:34;;;;;;;8.07;7.27;;;18.50;60.80;;;;;;5087282;28;20876;-75
2021/03/31 08:17:06;;;;;;;10.10;7.40;;;18.70;59.60;;;;;;5049685;28;20936;-74
2021/03/31 08:19:37;;;;;;;12.77;7.67;;;18.90;62.50;;;;;;5071223;28;20516;-75
2021/03/31 08:22:24;;;;;;;8.90;6.80;;;19.10;63.00;;;;;;5066377;28;20468;-75
2021/03/31 08:24:54;;;;;;;14.90;6.60;;;19.40;58.80;;;;;;5074466;28;20544;-75
2021/03/31 08:27:21;;;;;;;9.33;7.43;;;19.20;59.10;;;;;;5086178;28;20490;-75
2021/03/31 08:29:56;;;;;;;9.20;8.03;;;19.40;59.70;;;;;;5079866;28;21003;-74
2021/03/31 08:32:25;;;;;;;15.07;8.10;;;19.40;62.60;;;;;;5091300;28;20428;-75
2021/03/31 08:35:11;;;;;;;10.03;8.20;;;19.40;61.20;;;;;;5090897;28;20827;-75
2021/03/31 08:37:38;;;;;;;10.90;7.13;;;19.50;63.30;;;;;;5055256;28;20414;-75
2021/03/31 08:40:07;;;;;;;14.43;8.13;;;19.80;61.20;;;;;;5087245;28;20492;-75
2021/03/31 08:42:34;;;;;;;10.33;8.27;;;20.30;59.70;;;;;;5087865;28;20520;-75
2021/03/31 08:45:03;;;;;;;12.23;8.87;;;20.10;59.20;;;;;;5087894;28;20501;-74
2021/03/31 08:47:31;;;;;;;8.63;7.83;;;20.20;58.50;;;;;;5089426;28;20515;-75
2021/03/31 08:50:01;;;;;;;8.47;6.60;;;20.70;53.70;;;;;;5088172;28;20476;-74
2021/03/31 08:52:36;;;;;;;10.43;7.27;;;20.90;52.20;;;;;;5104949;22;20442;-79
2021/03/31 08:55:10;;;;;;;8.83;7.37;;;20.90;55.10;;;;;;5041316;28;20477;-80
2021/03/31 08:57:38;;;;;;;8.43;7.53;;;21.10;55.70;;;;;;5054891;28;20427;-80
2021/03/31 09:00:07;;;;;;;9.53;7.50;;;20.90;55.10;;;;;;5040543;28;20467;-80
2021/03/31 09:02:41;;;;;;;12.43;8.13;;;21.00;53.10;;;;;;5041424;28;20507;-80
2021/03/31 09:05:09;;;;;;;10.40;8.80;;;21.20;57.70;;;;;;5055264;28;20534;-80
2021/03/31 09:07:36;;;;;;;8.87;7.80;;;21.30;57.60;;;;;;5036999;28;20534;-81
2021/03/31 09:10:10;;;;;;;11.90;8.63;;;21.40;55.20;;;;;;5038879;28;20997;-80
2021/03/31 09:12:36;;;;;;;14.70;8.40;;;21.30;56.30;;;;;;5040604;28;20433;-80
2021/03/31 09:15:04;;;;;;;9.53;8.23;;;21.20;55.50;;;;;;5035954;28;20509;-80
2021/03/31 09:17:32;;;;;;;9.70;8.70;;;21.10;55.00;;;;;;5057757;28;20800;-80
2021/03/31 09:20:02;;;;;;;9.13;8.23;;;21.10;52.30;;;;;;5056699;28;20465;-79
2021/03/31 09:22:30;;;;;;;10.20;8.10;;;21.00;52.20;;;;;;5032369;28;20588;-79
2021/03/31 09:25:00;;;;;;;11.30;8.67;;;21.20;52.20;;;;;;5020778;28;20474;-81
2021/03/31 09:27:46;;;;;;;14.33;9.10;;;21.10;55.20;;;;;;5056882;28;20428;-81
2021/03/31 09:30:38;;;;;;;11.83;8.60;;;21.50;48.90;;;;;;5042076;28;20466;-80
2021/03/31 09:33:13;;;;;;;8.50;7.60;;;21.60;50.90;;;;;;5054962;28;20434;-81
2021/03/31 09:35:42;;;;;;;12.90;9.07;;;21.70;54.00;;;;;;5055195;28;20455;-81
2021/03/31 09:38:11;;;;;;;11.97;8.33;;;21.70;51.00;;;;;;5035414;28;20453;-81
2021/03/31 09:40:42;;;;;;;11.40;9.70;;;21.60;52.50;;;;;;5023013;28;20794;-81
2021/03/31 09:43:10;;;;;;;15.40;9.20;;;21.70;51.40;;;;;;5037646;28;20463;-81
2021/03/31 09:45:37;;;;;;;11.80;8.60;;;21.90;53.40;;;;;;5055042;28;20472;-80
2021/03/31 09:48:05;;;;;;;11.67;9.40;;;22.00;54.80;;;;;;5056596;28;20428;-79
2021/03/31 09:50:37;;;;;;;12.80;8.50;;;21.90;51.30;;;;;;5059424;28;20455;-80
2021/03/31 09:53:06;;;;;;;17.20;8.73;;;21.80;51.60;;;;;;5037953;28;21034;-81
2021/03/31 09:55:35;;;;;;;10.67;9.07;;;21.70;52.40;;;;;;5051614;28;20480;-80
2021/03/31 09:58:02;;;;;;;9.43;8.53;;;21.90;50.50;;;;;;5039921;28;20480;-80
2021/03/31 10:00:33;;;;;;;10.17;8.90;;;22.10;48.80;;;;;;5037531;28;20997;-80
2021/03/31 10:03:00;;;;;;;11.67;7.87;;;22.00;52.70;;;;;;5048924;28;20470;-80
2021/03/31 10:05:28;;;;;;;9.87;8.00;;;22.40;49.80;;;;;;5027527;28;20875;-80
2021/03/31 10:08:00;;;;;;;10.47;8.60;;;22.70;46.20;;;;;;5054718;28;20449;-80
2021/03/31 10:10:41;;;;;;;8.80;7.90;;;22.70;45.70;;;;;;5042366;28;20470;-81
2021/03/31 10:13:10;;;;;;;10.53;8.53;;;22.60;47.40;;;;;;5057246;28;20991;-80
2021/03/31 10:15:46;;;;;;;11.70;8.57;;;22.60;46.60;;;;;;5032025;28;20461;-80
2021/03/31 10:18:14;;;;;;;13.20;8.77;;;22.70;46.00;;;;;;5055660;28;20530;-81
2021/03/31 10:20:46;;;;;;;9.70;7.50;;;22.90;49.10;;;;;;5027230;28;20449;-81
2021/03/31 10:23:34;;;;;;;16.13;10.87;;;23.10;47.00;;;;;;5025573;28;20524;-80
2021/03/31 10:26:26;;;;;;;19.20;9.90;;;23.20;48.20;;;;;;5048417;28;20497;-80
2021/03/31 10:29:17;;;;;;;12.50;10.00;;;23.20;49.70;;;;;;5034614;28;20455;-80
2021/03/31 10:32:05;;;;;;;14.47;9.07;;;23.20;48.60;;;;;;5036211;28;20448;-81
2021/03/31 10:34:43;;;;;;;11.33;8.87;;;23.10;42.70;;;;;;5048957;28;21002;-80
2021/03/31 10:54:08;;;;;;;8.40;6.63;;;22.60;45.20;;;;;;5054791;28;20726;-82
2021/03/31 10:56:37;;;;;;;10.53;6.20;;;22.60;44.70;;;;;;5034294;28;20519;-82
2021/03/31 10:59:07;;;;;;;12.03;7.10;;;22.50;41.30;;;;;;5035750;28;20472;-81
2021/03/31 11:01:36;;;;;;;12.43;8.37;;;22.50;45.20;;;;;;5037129;28;20439;-81
2021/03/31 11:04:03;;;;;;;11.93;8.10;;;22.60;45.70;;;;;;5035625;28;20489;-81
2021/03/31 11:06:31;;;;;;;12.40;7.50;;;22.50;44.30;;;;;;5033930;28;20453;-82
2021/03/31 11:08:57;;;;;;;11.40;7.90;;;22.60;48.10;;;;;;5050506;28;20890;-81
2021/03/31 11:11:23;;;;;;;8.13;6.73;;;22.70;42.80;;;;;;5025480;28;20440;-81
2021/03/31 11:13:50;;;;;;;11.07;8.30;;;22.70;42.60;;;;;;5045869;28;20978;-82
2021/03/31 11:16:19;;;;;;;11.90;7.53;;;22.70;42.80;;;;;;5032881;28;20455;-81
2021/03/31 11:19:00;;;;;;;12.10;8.90;;;22.70;42.10;;;;;;5034643;28;20534;-81
2021/03/31 11:26:59;;;;;;;9.90;6.93;;;22.90;41.70;;;;;;5053678;28;20501;-81
2021/03/31 11:29:27;;;;;;;11.40;6.70;;;23.00;42.40;;;;;;5050735;28;20860;-81
2021/03/31 11:31:54;;;;;;;9.80;6.67;;;23.10;44.60;;;;;;5054055;28;20494;-81
2021/03/31 11:34:21;;;;;;;10.53;7.63;;;23.10;37.70;;;;;;5010065;28;20975;-80
2021/03/31 11:36:50;;;;;;;11.13;7.60;;;23.10;40.00;;;;;;5037205;28;20500;-81
2021/03/31 11:39:18;;;;;;;14.10;7.40;;;23.10;41.70;;;;;;5053051;28;20559;-80
2021/03/31 11:41:49;;;;;;;7.40;6.00;;;23.00;41.60;;;;;;5055262;28;20823;-79
2021/03/31 11:44:17;;;;;;;9.50;6.70;;;23.30;41.00;;;;;;5029177;28;20499;-81
2021/03/31 11:46:46;;;;;;;7.70;5.97;;;23.30;42.90;;;;;;5040204;28;20751;-81
2021/03/31 11:49:12;;;;;;;7.37;6.17;;;23.40;42.00;;;;;;5047814;28;20476;-81
2021/03/31 11:51:38;;;;;;;10.20;6.33;;;23.30;37.90;;;;;;5055477;28;20526;-81
2021/03/31 11:54:07;;;;;;;11.07;6.50;;;23.40;37.40;;;;;;5028795;28;20517;-80
2021/03/31 11:56:34;;;;;;;9.30;7.47;;;23.40;38.10;;;;;;5027911;28;20453;-81
2021/03/31 11:59:00;;;;;;;10.00;5.97;;;23.40;38.90;;;;;;5054191;28;20491;-81
2021/03/31 12:01:28;;;;;;;14.70;9.30;;;23.50;38.10;;;;;;5037481;28;20503;-80
2021/03/31 12:03:54;;;;;;;12.80;8.50;;;23.50;39.40;;;;;;5035954;28;20559;-80
2021/03/31 12:06:20;;;;;;;9.33;7.07;;;23.50;39.70;;;;;;5054749;28;20457;-81
2021/03/31 12:08:49;;;;;;;14.60;6.10;;;23.60;38.90;;;;;;5055238;28;20561;-80
2021/03/31 12:11:17;;;;;;;11.40;6.80;;;23.50;38.10;;;;;;5055119;28;20531;-81
2021/03/31 12:13:51;;;;;;;7.70;5.03;;;23.60;37.40;;;;;;5048750;28;21052;-81
2021/03/31 12:16:17;;;;;;;10.40;5.63;;;23.80;36.10;;;;;;5045069;28;20464;-81
2021/03/31 12:18:44;;;;;;;10.30;6.17;;;23.90;36.80;;;;;;5021921;28;20471;-81
2021/03/31 12:21:10;;;;;;;6.87;6.03;;;23.80;36.10;;;;;;5036974;28;20424;-81
2021/03/31 12:23:40;;;;;;;13.40;7.20;;;23.70;36.90;;;;;;5046364;28;20477;-81
2021/03/31 12:26:07;;;;;;;6.63;5.07;;;23.80;37.80;;;;;;5035979;28;20583;-80
2021/03/31 12:28:37;;;;;;;9.00;5.43;;;23.70;38.30;;;;;;5036903;28;20476;-81
2021/03/31 12:31:07;;;;;;;7.73;5.40;;;23.80;36.50;;;;;;5036862;28;20439;-81
2021/03/31 12:33:35;;;;;;;8.50;4.57;;;23.70;37.20;;;;;;5035225;28;20461;-81
2021/03/31 12:36:03;;;;;;;8.43;4.87;;;23.80;36.10;;;;;;5048185;28;20466;-80
2021/03/31 12:38:32;;;;;;;10.00;5.90;;;23.90;39.70;;;;;;5045009;28;20451;-81
2021/03/31 12:41:01;;;;;;;8.70;6.50;;;24.10;37.50;;;;;;5033997;28;20452;-80
2021/03/31 12:43:28;;;;;;;8.47;7.13;;;24.00;35.60;;;;;;5036041;28;20493;-81
2021/03/31 12:45:55;;;;;;;9.37;7.17;;;24.00;35.90;;;;;;5033744;28;20859;-81
2021/03/31 12:48:25;;;;;;;8.97;7.03;;;24.00;33.20;;;;;;5051462;28;20867;-81
2021/03/31 12:51:03;;;;;;;8.70;7.40;;;24.10;35.30;;;;;;5034539;28;20939;-81
2021/03/31 12:53:33;;;;;;;7.23;6.37;;;24.10;35.00;;;;;;5045264;28;20557;-81
2021/03/31 12:56:01;;;;;;;7.10;6.10;;;24.00;37.50;;;;;;5027191;28;20471;-81
2021/03/31 12:58:32;;;;;;;7.00;6.20;;;24.00;36.30;;;;;;5038299;28;20817;-81
2021/03/31 13:01:03;;;;;;;8.73;6.53;;;23.90;35.10;;;;;;5039844;28;20447;-81
2021/03/31 13:03:50;;;;;;;10.70;6.70;;;23.80;34.80;;;;;;5031312;28;20458;-81
2021/03/31 13:06:18;;;;;;;9.37;8.17;;;23.80;34.30;;;;;;5046524;28;20455;-80
2021/03/31 13:08:48;;;;;;;13.17;8.30;;;23.80;36.70;;;;;;5001784;28;20468;-81
2021/03/31 13:11:35;;;;;;;10.50;9.40;;;23.70;38.30;;;;;;5031749;28;20809;-81
2021/03/31 13:17:14;;;;;;;10.83;8.60;;;23.60;36.50;;;;;;5031857;28;20412;-81
2021/03/31 13:23:11;;;;;;;15.87;9.50;;;23.80;40.00;;;;;;5031889;28;22209;-81
2021/03/31 13:25:42;;;;;;;13.70;8.77;;;23.90;35.30;;;;;;5030872;28;20539;-82
2021/03/31 13:31:30;;;;;;;13.00;8.67;;;23.90;34.70;;;;;;5048826;28;20459;-81
2021/03/31 13:33:51;;;;;;;11.20;7.43;;;23.90;36.20;;;;;;5048365;28;20529;-81
2021/03/31 13:36:40;;;;;;;8.93;6.83;;;23.90;37.50;;;;;;5031299;28;20467;-81